createdAt,value
2023-04-13T00:01:03.027Z,1.67
2023-04-13T00:03:33.668Z,2.17
2023-04-13T00:06:03.569Z,2.22
2023-04-13T00:08:36.075Z,1.95
2023-04-13T00:11:07.813Z,2.28
2023-04-13T00:13:41.395Z,2.05
2023-04-13T00:16:14.697Z,1.73
2023-04-13T00:18:45.270Z,2.00
2023-04-13T00:21:17.324Z,1.50
2023-04-13T00:23:47.471Z,1.40
2023-04-13T00:26:20.779Z,1.48
2023-04-13T00:28:50.514Z,1.40
2023-04-13T00:31:23.913Z,1.45
2023-04-13T00:33:53.537Z,1.60
2023-04-13T00:36:24.972Z,1.20
2023-04-13T00:38:54.660Z,1.70
2023-04-13T00:41:24.396Z,1.73
2023-04-13T00:43:54.232Z,1.60
2023-04-13T00:46:26.650Z,2.00
2023-04-13T00:48:58.356Z,1.60
2023-04-13T00:51:30.319Z,1.80
2023-04-13T00:54:00.627Z,1.70
2023-04-13T00:56:30.992Z,1.70
2023-04-13T00:59:00.701Z,1.88
2023-04-13T01:01:33.139Z,2.22
2023-04-13T01:04:02.889Z,1.92
2023-04-13T01:06:42.214Z,2.35
2023-04-13T01:09:17.941Z,2.20
2023-04-13T01:11:56.434Z,2.05
2023-04-13T01:14:32.357Z,1.73
2023-04-13T01:17:08.712Z,1.70
2023-04-13T01:19:51.944Z,1.77
2023-04-13T01:22:25.676Z,2.38
2023-04-13T01:25:11.638Z,2.42
2023-04-13T01:27:51.877Z,2.25
2023-04-13T01:30:26.275Z,2.42
2023-04-13T01:32:59.924Z,2.38
2023-04-13T01:35:31.433Z,2.50
2023-04-13T01:38:02.434Z,2.20
2023-04-13T01:40:35.088Z,2.33
2023-04-13T01:43:07.391Z,2.45
2023-04-13T01:45:50.701Z,2.60
2023-04-13T01:48:24.869Z,2.65
2023-04-13T01:51:07.477Z,2.40
2023-04-13T01:53:49.376Z,2.20
2023-04-13T01:56:23.337Z,2.03
2023-04-13T01:59:02.623Z,1.60
2023-04-13T02:01:33.265Z,1.63
2023-04-13T02:04:03.905Z,1.27
2023-04-13T02:06:35.153Z,1.60
2023-04-13T02:09:08.393Z,1.63
2023-04-13T02:11:38.611Z,1.88
2023-04-13T02:14:12.577Z,2.10
2023-04-13T02:16:43.790Z,1.88
2023-04-13T02:19:16.452Z,2.10
2023-04-13T02:21:46.273Z,1.70
2023-04-13T02:24:17.145Z,1.15
2023-04-13T02:26:47.836Z,1.52
2023-04-13T02:29:20.090Z,1.50
2023-04-13T02:31:49.854Z,1.17
2023-04-13T02:34:19.541Z,1.40
2023-04-13T02:36:49.222Z,1.17
2023-04-13T02:39:18.923Z,1.70
2023-04-13T02:41:48.616Z,2.05
2023-04-13T02:44:25.885Z,1.90
2023-04-13T02:46:59.688Z,1.67
2023-04-13T02:49:29.339Z,1.75
2023-04-13T02:52:13.602Z,1.70
2023-04-13T02:54:54.909Z,1.60
2023-04-13T02:57:28.552Z,1.98
2023-04-13T03:00:07.797Z,1.80
2023-04-13T03:02:45.535Z,1.52
2023-04-13T03:05:20.068Z,1.65
2023-04-13T03:07:50.224Z,2.10
2023-04-13T03:10:20.642Z,2.40
2023-04-13T03:12:50.820Z,2.70
2023-04-13T03:15:23.836Z,2.78
2023-04-13T03:17:53.540Z,2.00
2023-04-13T03:20:29.376Z,2.33
2023-04-13T03:23:02.813Z,2.40
2023-04-13T03:25:36.344Z,2.75
2023-04-13T03:28:06.925Z,2.30
2023-04-13T03:33:14.628Z,1.80
2023-04-13T03:35:44.853Z,1.90
2023-04-13T03:38:23.750Z,1.73
2023-04-13T03:40:55.037Z,2.05
2023-04-13T03:43:28.038Z,1.77
2023-04-13T03:46:19.113Z,1.52
2023-04-13T03:48:48.979Z,1.85
2023-04-13T03:51:22.613Z,1.80
2023-04-13T03:53:55.315Z,1.83
2023-04-13T03:56:28.102Z,1.88
2023-04-13T03:58:59.475Z,2.30
2023-04-13T04:01:32.942Z,2.10
2023-04-13T04:04:02.984Z,2.25
2023-04-13T04:06:33.998Z,2.25
2023-04-13T04:09:15.905Z,1.80
2023-04-13T04:17:09.677Z,1.90
2023-04-13T04:19:39.413Z,1.90
2023-04-13T04:22:09.785Z,1.92
2023-04-13T04:24:42.918Z,1.90
2023-04-13T04:27:14.582Z,1.88
2023-04-13T04:29:49.198Z,1.70
2023-04-13T04:32:29.991Z,2.20
2023-04-13T04:34:59.699Z,1.70
2023-04-13T04:37:29.985Z,1.58
2023-04-13T04:40:05.765Z,1.65
2023-04-13T04:42:35.508Z,1.90
2023-04-13T04:45:07.447Z,1.67
2023-04-13T04:47:45.260Z,1.60
2023-04-13T04:50:22.124Z,1.77
2023-04-13T04:52:58.611Z,1.50
2023-04-13T04:55:28.611Z,1.48
2023-04-13T04:57:59.326Z,1.40
2023-04-13T05:00:31.021Z,1.20
2023-04-13T05:03:10.913Z,1.40
2023-04-13T05:05:45.700Z,0.82
2023-04-13T05:08:20.667Z,1.05
2023-04-13T05:10:52.702Z,1.30
2023-04-13T05:13:22.879Z,0.95
2023-04-13T05:16:05.915Z,1.10
2023-04-13T05:18:47.178Z,1.20
2023-04-13T05:21:37.573Z,1.10
2023-04-13T05:24:07.533Z,1.00
2023-04-13T05:26:37.973Z,1.10
2023-04-13T05:29:08.735Z,0.90
2023-04-13T05:31:43.231Z,1.13
2023-04-13T05:34:16.681Z,0.70
2023-04-13T05:37:01.281Z,0.70
2023-04-13T05:39:31.008Z,0.70
2023-04-13T05:42:01.515Z,0.85
2023-04-13T05:44:33.885Z,0.68
2023-04-13T05:47:04.146Z,0.90
2023-04-13T05:49:38.935Z,1.05
2023-04-13T05:52:10.695Z,0.80
2023-04-13T05:54:47.367Z,0.90
2023-04-13T05:57:17.201Z,0.80
2023-04-13T05:59:50.248Z,1.15
2023-04-13T06:02:26.800Z,0.70
2023-04-13T06:04:59.562Z,0.90
2023-04-13T06:07:29.583Z,1.13
2023-04-13T06:10:00.955Z,0.88
2023-04-13T06:12:30.896Z,0.70
2023-04-13T06:15:00.542Z,0.90
2023-04-13T06:17:30.912Z,1.10
2023-04-13T06:20:04.337Z,1.50
2023-04-13T06:22:37.038Z,0.80
2023-04-13T06:25:08.694Z,2.10
2023-04-13T06:27:43.586Z,2.35
2023-04-13T06:30:15.004Z,1.45
2023-04-13T06:32:45.541Z,1.10
2023-04-13T06:35:21.273Z,2.60
2023-04-13T06:37:52.648Z,3.13
2023-04-13T06:40:28.504Z,2.78
2023-04-13T06:43:08.956Z,2.10
2023-04-13T06:45:50.709Z,1.90
2023-04-13T06:48:24.085Z,0.80
2023-04-13T06:51:01.880Z,0.90
2023-04-13T06:53:34.361Z,1.42
2023-04-13T06:56:04.095Z,1.27
2023-04-13T06:58:34.637Z,0.77
2023-04-13T07:01:04.423Z,1.10
2023-04-13T07:03:37.025Z,1.38
2023-04-13T07:06:11.804Z,1.20
2023-04-13T07:08:42.247Z,0.70
2023-04-13T07:11:12.000Z,0.80
2023-04-13T07:13:42.327Z,0.90
2023-04-13T07:16:14.754Z,0.80
2023-04-13T07:18:47.729Z,1.00
2023-04-13T07:21:20.024Z,1.17
2023-04-13T07:24:03.359Z,0.90
2023-04-13T07:26:34.365Z,0.90
2023-04-13T07:29:04.252Z,1.50
2023-04-13T07:31:38.456Z,1.00
2023-04-13T07:34:09.287Z,1.30
2023-04-13T07:36:47.363Z,0.93
2023-04-13T07:39:21.941Z,0.93
2023-04-13T07:41:54.213Z,0.80
2023-04-13T07:44:31.337Z,1.20
2023-04-13T07:47:01.169Z,0.93
2023-04-13T07:49:32.989Z,0.82
2023-04-13T07:52:05.396Z,0.52
2023-04-13T07:54:38.897Z,0.93
2023-04-13T07:57:11.318Z,1.00
2023-04-13T07:59:46.646Z,0.95
2023-04-13T08:02:18.398Z,0.80
2023-04-13T08:04:52.965Z,0.85
2023-04-13T08:07:29.746Z,1.17
2023-04-13T08:09:59.664Z,0.90
2023-04-13T08:12:31.558Z,0.70
2023-04-13T08:15:01.220Z,1.00
2023-04-13T08:17:31.805Z,1.20
2023-04-13T08:20:04.241Z,1.15
2023-04-13T08:22:37.172Z,1.05
2023-04-13T08:25:10.282Z,1.55
2023-04-13T08:27:40.779Z,0.90
2023-04-13T08:30:12.765Z,1.10
2023-04-13T08:32:55.475Z,2.58
2023-04-13T08:35:26.796Z,2.20
2023-04-13T08:37:59.212Z,1.27
2023-04-13T08:40:29.355Z,1.45
2023-04-13T08:42:59.958Z,0.90
2023-04-13T08:45:30.777Z,1.10
2023-04-13T08:48:02.068Z,1.98
2023-04-13T08:50:34.075Z,0.90
2023-04-13T08:53:07.416Z,1.35
2023-04-13T08:55:37.398Z,1.00
2023-04-13T08:58:08.576Z,1.60
2023-04-13T09:00:39.020Z,1.15
2023-04-13T09:03:14.073Z,2.63
2023-04-13T09:05:49.437Z,1.15
2023-04-13T09:08:22.751Z,1.55
2023-04-13T09:10:54.349Z,1.05
2023-04-13T09:13:24.090Z,1.13
2023-04-13T09:15:54.043Z,2.38
2023-04-13T09:18:29.541Z,0.95
2023-04-13T09:21:08.331Z,4.30
2023-04-13T09:23:40.686Z,1.00
2023-04-13T09:26:11.469Z,1.33
2023-04-13T09:28:54.301Z,0.50
2023-04-13T09:31:25.853Z,0.77
2023-04-13T09:33:56.001Z,1.10
2023-04-13T09:36:25.675Z,0.98
2023-04-13T09:38:59.595Z,0.80
2023-04-13T09:41:37.147Z,0.50
2023-04-13T09:44:20.444Z,2.20
2023-04-13T09:47:00.088Z,1.10
2023-04-13T09:49:39.342Z,1.10
2023-04-13T09:52:10.213Z,0.80
2023-04-13T09:54:42.545Z,0.90
2023-04-13T09:57:12.263Z,0.80
2023-04-13T09:59:42.383Z,3.28
2023-04-13T10:02:13.065Z,1.63
2023-04-13T10:04:43.895Z,1.40
2023-04-13T10:07:13.605Z,0.60
2023-04-13T10:09:46.161Z,0.98
2023-04-13T10:12:19.580Z,0.40
2023-04-13T10:14:51.986Z,0.40
2023-04-13T10:17:42.876Z,0.43
2023-04-13T10:20:15.326Z,0.50
2023-04-13T10:22:48.763Z,0.45
2023-04-13T10:25:32.822Z,0.60
2023-04-13T10:28:04.368Z,1.35
2023-04-13T10:30:34.129Z,0.73
2023-04-13T10:33:05.935Z,0.60
2023-04-13T10:35:40.794Z,2.58
2023-04-13T10:38:12.614Z,2.55
2023-04-13T10:40:49.678Z,0.80
2023-04-13T10:43:29.310Z,0.40
2023-04-13T10:46:09.906Z,0.75
2023-04-13T10:48:40.235Z,0.80
2023-04-13T10:51:10.063Z,0.60
2023-04-13T10:53:39.892Z,1.38
2023-04-13T10:56:21.237Z,0.80
2023-04-13T10:58:55.703Z,1.13
2023-04-13T11:01:25.754Z,0.65
2023-04-13T11:04:04.399Z,0.80
2023-04-13T11:06:39.476Z,0.70
2023-04-13T11:09:13.746Z,0.70
2023-04-13T11:11:46.690Z,0.70
2023-04-13T11:14:23.797Z,0.70
2023-04-13T11:16:58.511Z,1.77
2023-04-13T11:19:28.430Z,1.23
2023-04-13T11:21:59.867Z,0.70
2023-04-13T11:24:30.258Z,1.50
2023-04-13T11:27:03.907Z,1.30
2023-04-13T11:29:33.638Z,1.00
2023-04-13T11:32:03.801Z,0.85
2023-04-13T11:34:33.453Z,0.70
2023-04-13T11:37:06.232Z,0.80
2023-04-13T11:39:38.596Z,0.95
2023-04-13T11:42:11.127Z,0.90
2023-04-13T11:44:42.883Z,0.60
2023-04-13T11:47:15.413Z,0.40
2023-04-13T11:49:48.101Z,0.50
2023-04-13T11:52:18.288Z,0.65
2023-04-13T11:54:49.290Z,0.43
2023-04-13T11:57:22.244Z,0.68
2023-04-13T11:59:54.262Z,0.70
2023-04-13T12:02:29.812Z,0.60
2023-04-13T12:05:00.745Z,0.40
2023-04-13T12:07:31.359Z,0.73
2023-04-13T12:10:05.802Z,0.40
2023-04-13T12:15:33.186Z,0.47
2023-04-13T12:18:14.310Z,0.77
2023-04-13T12:20:48.380Z,0.60
2023-04-13T12:23:24.022Z,0.40
2023-04-13T12:25:58.757Z,1.17
2023-04-13T12:28:35.853Z,1.75
2023-04-13T12:31:07.621Z,0.88
2023-04-13T12:33:37.588Z,0.80
2023-04-13T12:36:11.410Z,0.82
2023-04-13T12:38:41.181Z,0.75
2023-04-13T12:41:12.614Z,0.70
2023-04-13T12:43:44.891Z,0.68
2023-04-13T12:46:14.914Z,0.40
2023-04-13T12:48:44.608Z,0.80
2023-04-13T12:51:14.349Z,0.60
2023-04-13T12:53:44.146Z,0.50
2023-04-13T12:56:13.839Z,3.45
2023-04-13T12:58:46.265Z,1.30
2023-04-13T13:01:16.520Z,0.52
2023-04-13T13:03:46.589Z,0.30
2023-04-13T13:06:16.358Z,0.60
2023-04-13T13:08:46.173Z,0.43
2023-04-13T13:11:15.857Z,0.40
2023-04-13T13:13:48.480Z,0.32
2023-04-13T13:16:19.623Z,0.40
2023-04-13T13:18:51.539Z,0.45
2023-04-13T13:21:22.085Z,0.30
2023-04-13T13:23:52.682Z,0.60
2023-04-13T13:26:24.376Z,0.40
2023-04-13T13:28:57.599Z,0.43
2023-04-13T13:31:27.768Z,0.30
2023-04-13T13:33:57.417Z,0.40
2023-04-13T13:36:27.909Z,0.93
2023-04-13T13:39:00.053Z,0.65
2023-04-13T13:41:29.867Z,0.88
2023-04-13T13:44:02.202Z,0.93
2023-04-13T13:46:32.063Z,0.32
2023-04-13T13:49:05.830Z,0.80
2023-04-13T13:51:56.084Z,0.30
2023-04-13T13:54:28.846Z,0.90
2023-04-13T13:56:58.469Z,0.40
2023-04-13T13:59:30.730Z,0.47
2023-04-13T14:02:01.241Z,0.77
2023-04-13T14:04:31.068Z,0.85
2023-04-13T14:07:00.966Z,0.30
2023-04-13T14:09:31.032Z,0.30
2023-04-13T14:12:02.105Z,1.10
2023-04-13T14:14:34.384Z,0.30
2023-04-13T14:17:04.022Z,0.35
2023-04-13T14:19:34.760Z,0.30
2023-04-13T14:22:04.423Z,0.90
2023-04-13T14:24:34.062Z,1.05
2023-04-13T14:27:03.695Z,1.02
2023-04-13T14:29:36.150Z,0.40
2023-04-13T14:32:05.942Z,0.28
2023-04-13T14:34:35.605Z,0.30
2023-04-13T14:37:05.270Z,0.40
2023-04-13T14:39:34.928Z,0.28
2023-04-13T14:42:04.663Z,0.32
2023-04-13T14:44:36.957Z,0.20
2023-04-13T14:47:08.962Z,0.40
2023-04-13T14:49:39.312Z,0.40
2023-04-13T14:52:09.143Z,0.65
2023-04-13T14:54:39.256Z,0.20
2023-04-13T14:57:10.040Z,0.60
2023-04-13T14:59:42.341Z,0.40
2023-04-13T15:02:12.177Z,0.30
2023-04-13T15:04:42.725Z,0.40
2023-04-13T15:07:12.452Z,0.28
2023-04-13T15:09:42.205Z,0.30
2023-04-13T15:12:13.646Z,0.45
2023-04-13T15:14:47.020Z,1.23
2023-04-13T15:17:16.663Z,1.08
2023-04-13T15:19:46.313Z,4.78
2023-04-13T15:22:16.093Z,1.80
2023-04-13T15:24:45.752Z,1.40
2023-04-13T15:27:15.457Z,1.25
2023-04-13T15:29:47.763Z,1.20
2023-04-13T15:32:17.427Z,1.80
2023-04-13T15:34:47.164Z,1.52
2023-04-13T15:37:16.819Z,0.60
2023-04-13T15:39:46.432Z,0.57
2023-04-13T15:42:16.173Z,0.30
2023-04-13T15:44:48.566Z,0.47
2023-04-13T15:47:18.381Z,1.70
2023-04-13T15:49:47.981Z,0.45
2023-04-13T15:52:17.661Z,0.40
2023-04-13T15:54:47.859Z,0.40
2023-04-13T15:57:18.840Z,0.50
2023-04-13T15:59:51.054Z,0.90
2023-04-13T16:02:20.770Z,0.60
2023-04-13T16:04:51.062Z,1.50
2023-04-13T16:07:21.127Z,2.10
2023-04-13T16:09:56.310Z,3.30
2023-04-13T16:12:31.490Z,2.17
2023-04-13T16:15:06.331Z,0.60
2023-04-13T16:17:40.437Z,0.57
2023-04-13T16:20:18.233Z,0.75
2023-04-13T16:22:52.310Z,0.82
2023-04-13T16:25:22.474Z,1.50
2023-04-13T16:27:54.824Z,0.60
2023-04-13T16:30:30.511Z,1.50
2023-04-13T16:33:00.244Z,0.70
2023-04-13T16:35:30.029Z,0.50
2023-04-13T16:37:59.682Z,0.40
2023-04-13T16:40:29.410Z,0.75
2023-04-13T16:42:59.065Z,1.40
2023-04-13T16:45:31.569Z,2.10
2023-04-13T16:48:01.412Z,0.73
2023-04-13T16:50:32.314Z,0.70
2023-04-13T16:53:02.673Z,0.40
2023-04-13T16:55:32.309Z,0.52
2023-04-13T16:58:01.947Z,0.40
2023-04-13T17:00:35.382Z,0.30
2023-04-13T17:03:05.326Z,0.35
2023-04-13T17:05:35.068Z,0.80
2023-04-13T17:08:06.033Z,0.77
2023-04-13T17:10:36.473Z,0.50
2023-04-13T17:13:06.159Z,1.58
2023-04-13T17:15:38.544Z,0.60
2023-04-13T17:18:08.396Z,0.75
2023-04-13T17:20:39.818Z,0.95
2023-04-13T17:23:09.533Z,1.63
2023-04-13T17:25:41.648Z,2.50
2023-04-13T17:28:11.640Z,2.10
2023-04-13T17:30:43.874Z,2.08
2023-04-13T17:33:13.644Z,1.67
2023-04-13T17:35:43.318Z,0.77
2023-04-13T17:38:12.998Z,0.85
2023-04-13T17:40:42.646Z,1.55
2023-04-13T17:43:12.288Z,1.80
2023-04-13T17:45:44.532Z,1.25
2023-04-13T17:48:14.219Z,1.13
2023-04-13T17:50:43.945Z,2.35
2023-04-13T17:53:13.578Z,1.73
2023-04-13T17:55:43.260Z,2.55
2023-04-13T17:58:13.529Z,2.15
2023-04-13T18:00:45.741Z,1.30
2023-04-13T18:03:15.476Z,1.25
2023-04-13T18:05:47.217Z,1.10
2023-04-13T18:08:16.892Z,2.30
2023-04-13T18:10:46.553Z,1.50
2023-04-13T18:13:16.966Z,1.02
2023-04-13T18:15:50.448Z,0.60
2023-04-13T18:18:24.388Z,1.20
2023-04-13T18:20:54.794Z,0.60
2023-04-13T18:23:24.685Z,0.80
2023-04-13T18:25:54.562Z,0.50
2023-04-13T18:28:24.219Z,0.88
2023-04-13T18:31:02.143Z,2.30
2023-04-13T18:33:32.149Z,3.10
2023-04-13T18:36:01.840Z,2.92
2023-04-13T18:38:31.529Z,1.52
2023-04-13T18:41:01.307Z,0.95
2023-04-13T18:43:31.172Z,0.77
2023-04-13T18:46:03.767Z,0.70
2023-04-13T18:48:33.550Z,1.10
2023-04-13T18:51:03.881Z,1.40
2023-04-13T18:53:34.068Z,1.00
2023-04-13T18:56:03.701Z,1.15
2023-04-13T18:58:33.398Z,2.17
2023-04-13T19:01:05.688Z,2.35
2023-04-13T19:03:35.572Z,3.33
2023-04-13T19:06:05.825Z,1.15
2023-04-13T19:08:35.547Z,1.15
2023-04-13T19:11:05.261Z,0.90
2023-04-13T19:13:34.980Z,0.93
2023-04-13T19:16:09.378Z,1.00
2023-04-13T19:18:39.238Z,1.13
2023-04-13T19:21:09.289Z,2.05
2023-04-13T19:23:40.429Z,2.17
2023-04-13T19:26:10.425Z,2.00
2023-04-13T19:28:40.116Z,1.40
2023-04-13T19:31:12.487Z,1.20
2023-04-13T19:33:42.411Z,1.27
2023-04-13T19:36:12.316Z,1.20
2023-04-13T19:38:42.438Z,1.73
2023-04-13T19:41:12.247Z,2.05
2023-04-13T19:43:41.931Z,1.48
2023-04-13T19:46:14.274Z,1.63
2023-04-13T19:48:43.998Z,1.63
2023-04-13T19:51:13.662Z,1.83
2023-04-13T19:53:43.306Z,2.60
2023-04-13T19:56:13.409Z,2.70
2023-04-13T19:58:43.092Z,1.98
2023-04-13T20:01:16.233Z,2.03
2023-04-13T20:03:46.440Z,1.80
2023-04-13T20:06:16.484Z,2.17
2023-04-13T20:08:46.631Z,2.10
2023-04-13T20:11:16.431Z,1.83
2023-04-13T20:13:48.376Z,2.25
2023-04-13T20:16:20.683Z,2.10
2023-04-13T20:18:50.582Z,1.83
2023-04-13T20:21:20.429Z,1.55
2023-04-13T20:23:50.098Z,2.10
2023-04-13T20:26:19.816Z,2.03
2023-04-13T20:28:49.532Z,2.05
2023-04-13T20:31:21.813Z,2.28
2023-04-13T20:33:51.655Z,2.30
2023-04-13T20:36:21.850Z,2.03
2023-04-13T20:38:51.546Z,1.77
2023-04-13T20:41:22.134Z,1.90
2023-04-13T20:43:53.365Z,2.13
2023-04-13T20:46:34.413Z,1.80
2023-04-13T20:49:05.589Z,1.90
2023-04-13T20:51:35.925Z,2.53
2023-04-13T20:54:06.427Z,2.55
2023-04-13T20:56:36.274Z,2.40
2023-04-13T20:59:05.943Z,3.03
2023-04-13T21:01:38.784Z,2.58
2023-04-13T21:04:08.545Z,2.90
2023-04-13T21:06:38.332Z,2.90
2023-04-13T21:09:08.853Z,2.35
2023-04-13T21:11:38.868Z,2.55
2023-04-13T21:14:08.564Z,2.25
2023-04-13T21:16:41.175Z,2.92
2023-04-13T21:19:10.941Z,2.33
2023-04-13T21:21:40.923Z,2.47
2023-04-13T21:24:11.144Z,2.42
2023-04-13T21:26:41.055Z,2.70
2023-04-13T21:29:11.320Z,2.63
2023-04-13T21:31:43.576Z,2.45
2023-04-13T21:34:13.188Z,2.67
2023-04-13T21:39:16.176Z,2.72
2023-04-13T21:41:45.855Z,2.55
2023-04-13T21:44:28.682Z,2.50
2023-04-13T21:47:01.830Z,2.45
2023-04-13T21:49:31.558Z,2.45
2023-04-13T21:52:01.237Z,2.70
2023-04-13T21:54:30.978Z,2.78
2023-04-13T21:57:00.631Z,2.20
2023-04-13T21:59:30.343Z,2.50
2023-04-13T22:02:02.643Z,2.42
2023-04-13T22:04:32.484Z,2.40
2023-04-13T22:07:02.178Z,2.97
2023-04-13T22:09:31.826Z,2.45
2023-04-13T22:12:01.490Z,3.22
2023-04-13T22:14:31.127Z,3.58
2023-04-13T22:17:03.920Z,2.90
2023-04-13T22:19:33.545Z,2.90
2023-04-13T22:22:03.206Z,2.70
2023-04-13T22:24:32.878Z,2.92
2023-04-13T22:27:04.800Z,2.45
2023-04-13T22:29:34.631Z,2.92
2023-04-13T22:32:06.890Z,3.30
2023-04-13T22:34:36.549Z,3.80
2023-04-13T22:37:07.154Z,3.58
2023-04-13T22:39:36.931Z,3.90
2023-04-13T22:42:07.061Z,3.78
2023-04-13T22:44:36.976Z,4.40
2023-04-13T22:47:09.180Z,4.03
2023-04-13T22:49:38.845Z,4.30
2023-04-13T22:52:08.773Z,4.15
2023-04-13T22:54:38.517Z,3.58
2023-04-13T22:57:08.182Z,3.50
2023-04-13T22:59:37.812Z,3.25
2023-04-13T23:02:10.120Z,3.75
2023-04-13T23:04:40.661Z,3.67
2023-04-13T23:07:10.521Z,3.60
2023-04-13T23:09:40.159Z,3.00
2023-04-13T23:12:10.360Z,3.08
2023-04-13T23:14:40.542Z,3.08
2023-04-13T23:17:12.768Z,3.33
2023-04-13T23:19:42.469Z,3.60
2023-04-13T23:22:12.123Z,3.65
2023-04-13T23:24:41.784Z,3.90
2023-04-13T23:27:11.454Z,5.10
2023-04-13T23:29:45.674Z,5.53
2023-04-13T23:32:17.982Z,6.55
2023-04-13T23:34:47.635Z,6.20
2023-04-13T23:37:17.386Z,5.40
2023-04-13T23:39:47.022Z,5.63
2023-04-13T23:42:16.766Z,5.75
2023-04-13T23:44:46.467Z,5.50
2023-04-13T23:47:18.774Z,6.20
2023-04-13T23:49:48.527Z,5.85
2023-04-13T23:52:18.202Z,4.85
2023-04-13T23:54:47.850Z,5.75
2023-04-13T23:57:17.588Z,5.57
2023-04-13T23:59:47.203Z,5.72
